createdAt,value
2023-05-21T00:01:30.099Z,7.40
2023-05-21T00:03:59.885Z,7.22
2023-05-21T00:06:28.397Z,6.97
2023-05-21T00:08:56.868Z,7.20
2023-05-21T00:11:25.018Z,6.70
2023-05-21T00:13:53.194Z,6.88
2023-05-21T00:16:21.464Z,7.65
2023-05-21T00:18:51.354Z,8.10
2023-05-21T00:21:22.771Z,7.40
2023-05-21T00:23:51.075Z,8.05
2023-05-21T00:26:19.261Z,8.07
2023-05-21T00:28:48.972Z,8.57
2023-05-21T00:31:17.582Z,7.68
2023-05-21T00:33:45.932Z,7.60
2023-05-21T00:36:15.653Z,8.50
2023-05-21T00:38:45.897Z,9.25
2023-05-21T00:41:14.675Z,8.88
2023-05-21T00:43:44.592Z,10.55
2023-05-21T00:46:16.724Z,9.27
2023-05-21T00:48:46.081Z,9.98
2023-05-21T00:51:16.180Z,8.95
2023-05-21T00:53:45.280Z,9.07
2023-05-21T00:56:13.793Z,8.82
2023-05-21T00:58:42.643Z,9.38
2023-05-21T01:01:14.244Z,9.82
2023-05-21T01:03:43.280Z,9.53
2023-05-21T01:06:14.245Z,11.35
2023-05-21T01:08:44.196Z,9.85
2023-05-21T01:11:12.832Z,9.90
2023-05-21T01:13:43.114Z,9.98
2023-05-21T01:16:13.661Z,10.23
2023-05-21T01:18:43.643Z,9.07
2023-05-21T01:21:13.745Z,10.13
2023-05-21T01:23:43.488Z,9.98
2023-05-21T01:26:13.138Z,9.57
2023-05-21T01:28:42.335Z,9.48
2023-05-21T01:31:24.671Z,9.88
2023-05-21T01:33:54.727Z,9.75
2023-05-21T01:36:26.906Z,9.85
2023-05-21T01:41:30.618Z,9.07
2023-05-21T01:43:59.451Z,9.15
2023-05-21T01:46:30.199Z,9.93
2023-05-21T01:48:59.122Z,9.07
2023-05-21T01:51:28.437Z,9.70
2023-05-21T01:53:58.222Z,9.68
2023-05-21T01:56:28.661Z,10.38
2023-05-21T01:58:59.690Z,9.55
2023-05-21T02:01:30.507Z,9.63
2023-05-21T02:03:59.072Z,9.35
2023-05-21T02:06:27.400Z,9.18
2023-05-21T02:08:55.710Z,9.77
2023-05-21T02:11:26.292Z,9.85
2023-05-21T02:13:54.765Z,10.05
2023-05-21T02:16:23.023Z,8.93
2023-05-21T02:18:53.872Z,9.63
2023-05-21T02:21:22.226Z,9.45
2023-05-21T02:23:50.509Z,8.88
2023-05-21T02:26:19.024Z,10.32
2023-05-21T02:28:49.323Z,9.68
2023-05-21T02:31:17.523Z,9.00
2023-05-21T02:33:46.398Z,8.75
2023-05-21T02:36:15.445Z,8.23
2023-05-21T02:38:43.848Z,8.30
2023-05-21T02:41:13.790Z,8.73
2023-05-21T02:43:41.992Z,9.30
2023-05-21T02:46:12.211Z,9.05
2023-05-21T02:48:40.861Z,8.45
2023-05-21T02:51:09.247Z,9.10
2023-05-21T02:53:37.451Z,8.25
2023-05-21T02:56:06.538Z,9.07
2023-05-21T02:58:34.775Z,8.57
2023-05-21T03:01:02.938Z,9.27
2023-05-21T03:03:33.144Z,9.93
2023-05-21T03:06:01.581Z,9.35
2023-05-21T03:08:29.741Z,9.70
2023-05-21T03:10:58.135Z,9.55
2023-05-21T03:13:26.613Z,8.80
2023-05-21T03:15:56.406Z,9.38
2023-05-21T03:18:24.709Z,9.32
2023-05-21T03:20:55.650Z,9.38
2023-05-21T03:23:24.478Z,9.50
2023-05-21T03:25:53.217Z,9.63
2023-05-21T03:28:22.681Z,9.15
2023-05-21T03:30:52.236Z,9.23
2023-05-21T03:33:32.725Z,9.30
2023-05-21T03:36:04.128Z,11.05
2023-05-21T03:38:37.145Z,10.13
2023-05-21T03:41:07.229Z,9.48
2023-05-21T03:43:36.008Z,10.52
2023-05-21T03:46:04.553Z,11.00
2023-05-21T03:48:56.025Z,9.45
2023-05-21T03:51:27.591Z,9.25
2023-05-21T03:53:56.391Z,9.80
2023-05-21T03:56:24.589Z,9.93
2023-05-21T03:58:53.123Z,10.20
2023-05-21T04:01:21.683Z,8.93
2023-05-21T04:03:52.343Z,10.13
2023-05-21T04:06:23.894Z,9.50
2023-05-21T04:08:53.488Z,9.60
2023-05-21T04:11:22.600Z,10.07
2023-05-21T04:13:51.770Z,10.52
2023-05-21T04:16:20.106Z,9.95
2023-05-21T04:18:48.728Z,11.55
2023-05-21T04:21:17.952Z,10.82
2023-05-21T04:23:46.591Z,11.70
2023-05-21T04:26:29.598Z,11.60
2023-05-21T04:28:59.535Z,11.50
2023-05-21T04:31:28.012Z,11.00
2023-05-21T04:33:56.320Z,10.60
2023-05-21T04:36:24.651Z,10.23
2023-05-21T04:38:53.554Z,10.32
2023-05-21T04:41:21.706Z,10.68
2023-05-21T04:43:55.437Z,11.00
2023-05-21T04:46:27.419Z,9.60
2023-05-21T04:48:56.116Z,9.93
2023-05-21T04:51:26.848Z,10.70
2023-05-21T04:53:55.208Z,11.60
2023-05-21T04:56:23.648Z,10.82
2023-05-21T04:58:54.241Z,10.23
2023-05-21T05:01:24.007Z,10.93
2023-05-21T05:03:52.767Z,10.07
2023-05-21T05:06:21.550Z,11.13
2023-05-21T05:08:50.863Z,10.27
2023-05-21T05:11:19.508Z,10.55
2023-05-21T05:13:48.480Z,10.32
2023-05-21T05:16:25.012Z,10.25
2023-05-21T05:18:54.007Z,9.75
2023-05-21T05:21:24.117Z,10.30
2023-05-21T05:23:52.794Z,9.63
2023-05-21T05:26:25.552Z,9.50
2023-05-21T05:28:53.822Z,9.60
2023-05-21T05:31:23.638Z,10.07
2023-05-21T05:33:53.492Z,9.38
2023-05-21T05:36:24.294Z,9.73
2023-05-21T05:38:54.437Z,9.02
2023-05-21T05:41:24.221Z,9.27
2023-05-21T05:43:52.401Z,9.43
2023-05-21T05:46:25.891Z,8.77
2023-05-21T05:48:54.136Z,8.30
2023-05-21T05:51:22.344Z,7.82
2023-05-21T05:53:51.064Z,8.35
2023-05-21T05:56:19.244Z,6.82
2023-05-21T05:58:47.748Z,5.95
2023-05-21T06:01:17.835Z,6.72
2023-05-21T06:03:48.175Z,5.65
2023-05-21T06:06:19.201Z,5.35
2023-05-21T06:08:47.760Z,4.78
2023-05-21T06:11:19.305Z,5.03
2023-05-21T06:13:47.623Z,5.20
2023-05-21T06:16:18.703Z,4.60
2023-05-21T06:18:48.563Z,4.43
2023-05-21T06:21:16.864Z,4.70
2023-05-21T06:23:46.340Z,4.47
2023-05-21T06:26:14.607Z,4.28
2023-05-21T06:28:43.298Z,3.63
2023-05-21T06:31:13.765Z,3.90
2023-05-21T06:33:43.832Z,3.72
2023-05-21T06:36:14.093Z,3.33
2023-05-21T06:38:42.797Z,2.92
2023-05-21T06:41:11.230Z,2.90
2023-05-21T06:43:55.908Z,3.00
2023-05-21T06:46:42.875Z,2.30
2023-05-21T06:49:14.517Z,2.42
2023-05-21T06:51:45.773Z,2.90
2023-05-21T06:54:15.351Z,2.72
2023-05-21T06:56:44.042Z,2.20
2023-05-21T06:59:12.298Z,2.40
2023-05-21T07:01:42.829Z,2.05
2023-05-21T07:04:11.551Z,2.27
2023-05-21T07:06:41.175Z,2.10
2023-05-21T07:09:11.269Z,2.28
2023-05-21T07:11:40.449Z,2.08
2023-05-21T07:14:10.104Z,1.92
2023-05-21T07:16:39.489Z,1.70
2023-05-21T07:19:08.170Z,1.63
2023-05-21T07:21:36.575Z,1.88
2023-05-21T07:24:07.783Z,1.88
2023-05-21T07:26:41.307Z,2.20
2023-05-21T07:29:10.117Z,1.65
2023-05-21T07:31:38.669Z,1.95
2023-05-21T07:34:07.905Z,2.25
2023-05-21T07:36:37.091Z,1.70
2023-05-21T07:39:05.450Z,2.30
2023-05-21T07:41:33.925Z,1.70
2023-05-21T07:44:08.290Z,2.13
2023-05-21T07:46:40.624Z,1.65
2023-05-21T07:49:16.647Z,2.75
2023-05-21T07:51:46.318Z,1.90
2023-05-21T07:54:14.614Z,1.85
2023-05-21T07:56:42.918Z,2.53
2023-05-21T07:59:20.335Z,1.42
2023-05-21T08:01:48.684Z,1.60
2023-05-21T08:04:17.368Z,1.45
2023-05-21T08:06:45.745Z,1.58
2023-05-21T08:09:14.064Z,1.95
2023-05-21T08:11:43.006Z,2.00
2023-05-21T08:14:11.784Z,1.98
2023-05-21T08:16:41.622Z,2.08
2023-05-21T08:19:10.239Z,1.58
2023-05-21T08:21:42.117Z,2.00
2023-05-21T08:24:15.065Z,1.88
2023-05-21T08:26:45.038Z,1.77
2023-05-21T08:29:13.941Z,1.40
2023-05-21T08:31:44.865Z,1.60
2023-05-21T08:34:13.156Z,1.52
2023-05-21T08:36:50.086Z,2.10
2023-05-21T08:39:47.706Z,1.55
2023-05-21T08:42:35.778Z,2.00
2023-05-21T08:45:07.822Z,1.70
2023-05-21T08:47:38.238Z,1.60
2023-05-21T08:50:10.761Z,1.60
2023-05-21T08:52:39.558Z,2.10
2023-05-21T08:55:09.395Z,1.73
2023-05-21T08:57:39.405Z,1.50
2023-05-21T09:00:09.092Z,1.38
2023-05-21T09:02:40.967Z,1.42
2023-05-21T09:07:44.968Z,1.67
2023-05-21T09:10:28.261Z,1.75
2023-05-21T09:12:57.527Z,2.33
2023-05-21T09:15:28.214Z,1.52
2023-05-21T09:17:59.062Z,1.57
2023-05-21T09:20:56.798Z,1.20
2023-05-21T09:23:30.068Z,1.50
2023-05-21T09:25:58.919Z,1.40
2023-05-21T09:28:32.857Z,1.60
2023-05-21T09:31:05.046Z,1.42
2023-05-21T09:33:34.865Z,1.30
2023-05-21T09:36:03.775Z,1.77
2023-05-21T09:38:35.430Z,1.60
2023-05-21T09:41:06.633Z,1.70
2023-05-21T09:43:36.300Z,1.23
2023-05-21T09:46:05.776Z,1.35
2023-05-21T09:48:37.983Z,1.50
2023-05-21T09:51:14.338Z,1.23
2023-05-21T09:53:49.734Z,1.67
2023-05-21T09:56:20.426Z,1.52
2023-05-21T09:58:49.682Z,1.10
2023-05-21T10:01:18.091Z,1.17
2023-05-21T10:03:51.654Z,1.20
2023-05-21T10:06:21.057Z,1.40
2023-05-21T10:08:53.527Z,1.20
2023-05-21T10:11:24.983Z,1.40
2023-05-21T10:13:58.819Z,1.80
2023-05-21T10:16:27.257Z,1.30
2023-05-21T10:18:58.215Z,1.48
2023-05-21T10:21:28.068Z,1.17
2023-05-21T10:23:57.670Z,1.42
2023-05-21T10:26:26.565Z,0.98
2023-05-21T10:28:57.453Z,1.33
2023-05-21T10:31:27.765Z,1.00
2023-05-21T10:33:58.654Z,1.10
2023-05-21T10:36:32.209Z,1.20
2023-05-21T10:39:03.155Z,1.00
2023-05-21T10:41:40.808Z,1.65
2023-05-21T10:44:18.065Z,1.27
2023-05-21T10:47:10.349Z,1.10
2023-05-21T10:52:36.612Z,1.30
2023-05-21T10:55:18.965Z,1.40
2023-05-21T10:58:13.798Z,1.38
2023-05-21T11:00:43.830Z,1.13
2023-05-21T11:03:14.328Z,1.45
2023-05-21T11:05:53.552Z,1.30
2023-05-21T11:08:26.465Z,1.17
2023-05-21T11:10:55.963Z,1.33
2023-05-21T11:13:24.232Z,1.30
2023-05-21T11:16:08.078Z,1.10
2023-05-21T11:19:00.220Z,1.40
2023-05-21T11:21:32.406Z,1.50
2023-05-21T11:24:06.545Z,1.80
2023-05-21T11:27:07.182Z,1.40
2023-05-21T11:29:41.707Z,1.40
2023-05-21T11:32:11.790Z,1.50
2023-05-21T11:34:41.985Z,1.73
2023-05-21T11:37:30.266Z,1.20
2023-05-21T11:40:00.148Z,1.88
2023-05-21T11:42:33.611Z,1.60
2023-05-21T11:45:03.759Z,1.30
2023-05-21T11:47:33.974Z,1.65
2023-05-21T11:50:03.551Z,1.55
2023-05-21T11:52:33.902Z,1.17
2023-05-21T11:55:02.457Z,1.38
2023-05-21T11:57:31.976Z,1.20
2023-05-21T12:00:02.659Z,1.58
2023-05-21T12:02:45.326Z,1.40
2023-05-21T12:05:13.764Z,1.70
2023-05-21T12:07:44.020Z,1.70
2023-05-21T12:10:13.587Z,1.60
2023-05-21T12:12:53.929Z,1.13
2023-05-21T12:15:24.575Z,1.13
2023-05-21T12:17:54.339Z,1.50
2023-05-21T12:20:25.017Z,2.08
2023-05-21T12:22:55.701Z,1.35
2023-05-21T12:25:24.252Z,1.70
2023-05-21T12:27:57.994Z,1.50
2023-05-21T12:30:27.428Z,1.60
2023-05-21T12:32:59.713Z,1.83
2023-05-21T12:35:28.573Z,1.63
2023-05-21T12:38:03.690Z,1.52
2023-05-21T12:40:40.631Z,1.70
2023-05-21T12:43:09.336Z,1.70
2023-05-21T12:45:40.767Z,1.48
2023-05-21T12:48:09.638Z,1.95
2023-05-21T12:50:40.978Z,1.95
2023-05-21T12:53:12.524Z,1.55
2023-05-21T12:55:41.667Z,1.95
2023-05-21T12:58:10.072Z,2.13
2023-05-21T13:00:38.953Z,2.05
2023-05-21T13:03:07.668Z,1.63
2023-05-21T13:05:36.701Z,2.15
2023-05-21T13:08:05.299Z,1.98
2023-05-21T13:10:35.429Z,1.95
2023-05-21T13:13:04.059Z,2.40
2023-05-21T13:15:33.122Z,2.30
2023-05-21T13:18:01.926Z,2.10
2023-05-21T13:20:30.703Z,2.33
2023-05-21T13:22:59.011Z,1.75
2023-05-21T13:25:29.714Z,1.85
2023-05-21T13:28:02.835Z,2.08
2023-05-21T13:30:31.322Z,2.85
2023-05-21T13:32:59.617Z,2.85
2023-05-21T13:35:27.937Z,1.75
2023-05-21T13:37:56.160Z,2.13
2023-05-21T13:40:24.573Z,1.90
2023-05-21T13:42:53.375Z,2.08
2023-05-21T13:45:29.258Z,2.17
2023-05-21T13:47:58.284Z,1.70
2023-05-21T13:50:26.964Z,2.20
2023-05-21T13:52:55.260Z,2.08
2023-05-21T13:55:23.660Z,2.40
2023-05-21T13:57:51.995Z,1.80
2023-05-21T14:00:20.254Z,1.50
2023-05-21T14:02:50.326Z,2.50
2023-05-21T14:05:19.101Z,2.25
2023-05-21T14:07:48.586Z,2.40
2023-05-21T14:10:17.125Z,2.42
2023-05-21T14:12:46.647Z,2.75
2023-05-21T14:15:15.357Z,1.95
2023-05-21T14:17:43.786Z,1.92
2023-05-21T14:20:14.138Z,2.72
2023-05-21T14:22:42.515Z,2.50
2023-05-21T14:25:11.098Z,2.35
2023-05-21T14:27:39.427Z,2.70
2023-05-21T14:30:08.937Z,2.42
2023-05-21T14:32:37.214Z,2.28
2023-05-21T14:35:06.546Z,2.63
2023-05-21T14:37:36.402Z,3.17
2023-05-21T14:40:05.630Z,3.05
2023-05-21T14:42:33.757Z,2.60
2023-05-21T14:45:17.352Z,3.35
2023-05-21T14:47:47.795Z,2.88
2023-05-21T14:50:17.604Z,2.45
2023-05-21T14:52:47.361Z,3.38
2023-05-21T14:55:16.981Z,2.80
2023-05-21T14:57:45.533Z,3.08
2023-05-21T15:00:14.511Z,3.15
2023-05-21T15:02:43.189Z,3.10
2023-05-21T15:05:11.634Z,3.70
2023-05-21T15:07:39.932Z,3.38
2023-05-21T15:10:10.867Z,3.30
2023-05-21T15:12:39.354Z,3.28
2023-05-21T15:15:08.381Z,2.88
2023-05-21T15:17:37.203Z,3.13
2023-05-21T15:20:07.296Z,3.20
2023-05-21T15:22:36.221Z,3.10
2023-05-21T15:25:05.680Z,3.38
2023-05-21T15:27:36.026Z,3.58
2023-05-21T15:30:05.122Z,3.90
2023-05-21T15:32:33.552Z,2.70
2023-05-21T15:35:02.288Z,3.72
2023-05-21T15:37:32.403Z,4.03
2023-05-21T15:40:01.024Z,3.05
2023-05-21T15:42:31.914Z,3.38
2023-05-21T15:45:01.703Z,2.83
2023-05-21T15:47:30.351Z,3.08
2023-05-21T15:50:00.532Z,3.20
2023-05-21T15:52:28.871Z,3.40
2023-05-21T15:54:58.146Z,3.95
2023-05-21T15:57:26.645Z,3.70
2023-05-21T15:59:54.902Z,3.10
2023-05-21T16:02:24.667Z,4.00
2023-05-21T16:04:53.749Z,3.60
2023-05-21T16:07:24.197Z,3.45
2023-05-21T16:09:52.526Z,3.50
2023-05-21T16:12:21.049Z,3.83
2023-05-21T16:14:50.939Z,4.07
2023-05-21T16:17:19.806Z,3.83
2023-05-21T16:19:49.782Z,4.05
2023-05-21T16:22:17.924Z,3.75
2023-05-21T16:24:46.313Z,3.20
2023-05-21T16:27:15.150Z,3.05
2023-05-21T16:29:43.940Z,3.63
2023-05-21T16:32:14.088Z,3.08
2023-05-21T16:34:42.691Z,2.92
2023-05-21T16:37:12.370Z,2.92
2023-05-21T16:39:40.926Z,2.80
2023-05-21T16:42:09.283Z,3.30
2023-05-21T16:44:41.931Z,3.45
2023-05-21T16:56:56.718Z,3.58
2023-05-21T17:03:37.396Z,2.70
2023-05-21T17:09:56.629Z,2.95
2023-05-21T17:12:33.956Z,3.33
2023-05-21T17:15:29.798Z,3.20
2023-05-21T17:18:05.224Z,2.70
2023-05-21T17:23:45.714Z,2.83
2023-05-21T17:30:00.349Z,2.90
2023-05-21T17:32:32.761Z,2.63
2023-05-21T17:35:01.149Z,2.45
2023-05-21T17:37:29.989Z,2.90
2023-05-21T17:39:58.909Z,2.50
2023-05-21T17:42:27.212Z,3.58
2023-05-21T17:44:55.880Z,2.47
2023-05-21T17:47:24.429Z,3.53
2023-05-21T17:49:54.196Z,3.28
2023-05-21T17:52:22.863Z,2.72
2023-05-21T17:54:51.041Z,3.50
2023-05-21T17:57:20.349Z,2.50
2023-05-21T17:59:48.582Z,2.85
2023-05-21T18:02:16.789Z,3.05
2023-05-21T18:04:45.259Z,3.10
2023-05-21T18:07:16.210Z,2.85
2023-05-21T18:09:44.552Z,2.97
2023-05-21T18:12:12.754Z,2.72
2023-05-21T18:14:40.975Z,3.40
2023-05-21T18:17:09.721Z,2.95
2023-05-21T18:19:38.409Z,3.15
2023-05-21T18:22:06.963Z,3.53
2023-05-21T18:24:38.375Z,2.42
2023-05-21T18:27:07.405Z,3.00
2023-05-21T18:29:36.792Z,3.72
2023-05-21T18:32:05.395Z,2.95
2023-05-21T18:34:33.635Z,3.60
2023-05-21T18:37:02.331Z,2.97
2023-05-21T18:39:30.531Z,3.33
2023-05-21T18:42:11.996Z,2.60
2023-05-21T18:44:42.249Z,3.00
2023-05-21T18:47:11.813Z,3.35
2023-05-21T18:49:40.439Z,2.92
2023-05-21T18:52:09.221Z,3.70
2023-05-21T18:54:37.537Z,2.75
2023-05-21T18:57:07.698Z,2.95
2023-05-21T18:59:36.443Z,3.25
2023-05-21T19:02:05.751Z,3.67
2023-05-21T19:04:34.456Z,3.90
2023-05-21T19:07:04.018Z,3.53
2023-05-21T19:09:32.291Z,3.17
2023-05-21T19:12:01.675Z,3.47
2023-05-21T19:14:31.326Z,3.22
2023-05-21T19:16:59.562Z,3.55
2023-05-21T19:19:28.050Z,3.92
2023-05-21T19:21:56.657Z,3.53
2023-05-21T19:24:25.438Z,3.42
2023-05-21T19:26:53.760Z,3.45
2023-05-21T19:29:22.844Z,3.65
2023-05-21T19:31:56.149Z,3.40
2023-05-21T19:34:26.763Z,3.67
2023-05-21T19:36:55.221Z,3.85
2023-05-21T19:39:23.482Z,3.40
2023-05-21T19:41:51.776Z,3.40
2023-05-21T19:44:20.179Z,3.63
2023-05-21T19:46:49.172Z,3.45
2023-05-21T19:49:20.084Z,3.42
2023-05-21T19:51:49.575Z,3.55
2023-05-21T19:54:18.984Z,4.03
2023-05-21T19:56:47.299Z,3.53
2023-05-21T19:59:15.820Z,3.50
2023-05-21T20:01:44.440Z,3.42
2023-05-21T20:04:19.270Z,3.17
2023-05-21T20:06:53.358Z,3.15
2023-05-21T20:09:21.611Z,3.33
2023-05-21T20:11:50.137Z,3.05
2023-05-21T20:14:18.399Z,3.03
2023-05-21T20:16:48.517Z,3.13
2023-05-21T20:19:16.894Z,3.42
2023-05-21T20:21:45.095Z,2.95
2023-05-21T20:24:15.226Z,4.05
2023-05-21T20:26:45.053Z,3.22
2023-05-21T20:29:13.348Z,3.38
2023-05-21T20:31:53.932Z,3.03
2023-05-21T20:34:35.155Z,2.95
2023-05-21T20:37:22.937Z,3.15
2023-05-21T20:40:00.207Z,3.40
2023-05-21T20:42:34.325Z,3.40
2023-05-21T20:45:03.384Z,3.67
2023-05-21T20:47:32.117Z,3.25
2023-05-21T20:50:02.860Z,3.75
2023-05-21T20:52:31.149Z,3.13
2023-05-21T20:55:01.027Z,3.78
2023-05-21T20:57:31.431Z,3.40
2023-05-21T21:00:02.997Z,3.33
2023-05-21T21:02:32.909Z,5.40
2023-05-21T21:05:02.795Z,3.65
2023-05-21T21:07:33.634Z,3.80
2023-05-21T21:10:03.585Z,3.83
2023-05-21T21:12:32.364Z,2.90
2023-05-21T21:15:00.687Z,3.38
2023-05-21T21:17:29.027Z,3.47
2023-05-21T21:19:57.240Z,3.72
2023-05-21T21:22:25.867Z,3.65
2023-05-21T21:24:54.037Z,4.13
2023-05-21T21:27:23.801Z,3.70
2023-05-21T21:29:52.141Z,4.22
2023-05-21T21:32:21.409Z,3.78
2023-05-21T21:34:49.847Z,3.90
2023-05-21T21:37:19.735Z,3.40
2023-05-21T21:39:48.315Z,3.67
2023-05-21T21:42:16.671Z,2.92
2023-05-21T21:44:46.439Z,3.75
2023-05-21T21:47:14.816Z,3.88
2023-05-21T21:49:43.412Z,3.80
2023-05-21T21:52:12.773Z,4.07
2023-05-21T21:54:42.103Z,3.10
2023-05-21T21:57:10.444Z,3.92
2023-05-21T21:59:40.249Z,3.67
2023-05-21T22:02:11.052Z,3.25
2023-05-21T22:04:39.405Z,3.35
2023-05-21T22:07:11.046Z,4.05
2023-05-21T22:09:39.645Z,3.70
2023-05-21T22:12:09.239Z,3.42
2023-05-21T22:14:37.539Z,3.50
2023-05-21T22:17:08.406Z,3.47
2023-05-21T22:19:38.992Z,3.70
2023-05-21T22:22:07.426Z,3.45
2023-05-21T22:24:35.885Z,3.33
2023-05-21T22:27:04.887Z,3.20
2023-05-21T22:29:33.128Z,3.60
2023-05-21T22:32:01.606Z,4.00
2023-05-21T22:34:30.321Z,4.10
2023-05-21T22:37:00.144Z,3.75
2023-05-21T22:39:28.513Z,3.85
2023-05-21T22:41:56.878Z,4.05
2023-05-21T22:44:25.482Z,4.10
2023-05-21T22:46:56.473Z,3.80
2023-05-21T22:49:25.079Z,4.45
2023-05-21T22:51:54.381Z,4.00
2023-05-21T22:54:24.056Z,4.43
2023-05-21T22:56:52.547Z,4.68
2023-05-21T22:59:21.300Z,4.32
2023-05-21T23:01:49.845Z,5.20
2023-05-21T23:04:19.486Z,4.38
2023-05-21T23:06:48.936Z,4.53
2023-05-21T23:09:17.185Z,3.80
2023-05-21T23:11:46.812Z,4.43
2023-05-21T23:14:15.128Z,4.13
2023-05-21T23:16:44.228Z,4.82
2023-05-21T23:19:13.158Z,3.78
2023-05-21T23:21:41.620Z,4.65
2023-05-21T23:24:11.471Z,4.28
2023-05-21T23:26:39.689Z,3.15
2023-05-21T23:29:09.427Z,3.67
2023-05-21T23:31:37.945Z,4.13
2023-05-21T23:34:06.569Z,3.97
2023-05-21T23:36:34.819Z,3.78
2023-05-21T23:39:03.281Z,3.30
2023-05-21T23:41:31.515Z,4.03
2023-05-21T23:43:59.706Z,4.43
2023-05-21T23:46:29.315Z,3.97
2023-05-21T23:48:57.682Z,4.68
2023-05-21T23:51:26.563Z,3.45
2023-05-21T23:53:55.368Z,4.15
2023-05-21T23:56:23.571Z,3.35
2023-05-21T23:58:53.072Z,3.53
